Prilep, Macedonia
Current Conditions -  °F | °C
As of 1:00 AM on Thursday 23 Oct 2014 (Local Time) from LWSK Reporting Station
Moderate Rain Moderate Rain  
Wind Chill: 42°   Ceiling: 3300
Heat Index: 46°   Visibility: 6mi
Dew Point: 45°   Wind: 8mph
Humidity: 93%   Direction: 360°N
Pressure: 29.59"   Gusts: NA
Location:  41.36°N, 21.56°E
Report Text: LWSK 222300Z 36007KT 9999 RA SCT016 OVC033 08/07 Q1002 NOSIG
Loading
Personal Weather Stations






























Interactive Weather Map
Tropical Storm Tracking
New forecast layout! Learn more

10-Day Weather Forecast

Advertisements
Track Severe Weather on mobile